Westport, Oklahoma
Current Conditions -  °F | °C
As of 2:15 PM on Wednesday 28 Jan 2015 (Local Time) from KOWP Reporting Station
Clear Clear  
Wind Chill: 27°   Ceiling: Unl
Heat Index: 27°   Visibility: 10mi
Dew Point:   Wind: 17mph
Humidity: 17%   Direction: 190°S
Pressure: 29.87"   Gusts: 25mph
Location:  36.248°N, 96.4789°W
Report Text: KOWP 282015Z AUTO 19015G22KT 10SM CLR 27/00 A2987 RMK AO2 T02740003
Loading
Personal Weather Stations






























Interactive Weather Map New forecast layout! Learn more

10-Day Weather Forecast

Advertisements
Track Severe Weather on mobile